Terminal Aerodrome Forecast
Issued by NWS Jackson, MS

Current Version | Previous Version | Text Only | Print | Product List | Glossary On
Versions: 1 2 3 4 5 6 7 8 9 10 11 12 13 14 15 16 17 18
000
FTUS44 KJAN 020520
TAFGLH
TAF
KGLH 020520Z 0206/0306 18011KT P6SM SCT050 OVC250
     FM020800 19010KT P6SM SCT025 OVC050
     FM021000 19010KT 4SM BR OVC025
     FM021500 20022G28KT P6SM BKN040
     FM021800 20024G35KT P6SM SCT050 BKN250
     FM030100 18020KT P6SM SCT250=

USA.gov is the U.S. government's official web portal to all federal, state and local government web resources and services.